sensor_id;sensor_type;location;lat;lon;timestamp;P1;durP1;ratioP1;P2;durP2;ratioP2
26750;SDS011;14345;48.272;25.926;2022-12-07T00:01:54;20.00;;;13.48;;
26750;SDS011;14345;48.272;25.926;2022-12-07T00:04:20;20.98;;;14.27;;
26750;SDS011;14345;48.272;25.926;2022-12-07T00:06:47;20.08;;;12.75;;
26750;SDS011;14345;48.272;25.926;2022-12-07T00:09:16;21.17;;;13.40;;
26750;SDS011;14345;48.272;25.926;2022-12-07T00:11:43;22.63;;;14.55;;
26750;SDS011;14345;48.272;25.926;2022-12-07T00:14:11;24.08;;;14.98;;
26750;SDS011;14345;48.272;25.926;2022-12-07T00:16:37;25.50;;;16.13;;
26750;SDS011;14345;48.272;25.926;2022-12-07T00:19:03;24.42;;;15.35;;
26750;SDS011;14345;48.272;25.926;2022-12-07T00:21:31;25.00;;;15.88;;
26750;SDS011;14345;48.272;25.926;2022-12-07T00:23:57;19.55;;;13.50;;
26750;SDS011;14345;48.272;25.926;2022-12-07T00:26:24;22.00;;;14.10;;
26750;SDS011;14345;48.272;25.926;2022-12-07T00:28:52;23.27;;;14.75;;
26750;SDS011;14345;48.272;25.926;2022-12-07T00:31:19;22.27;;;14.45;;
26750;SDS011;14345;48.272;25.926;2022-12-07T00:33:46;21.20;;;14.27;;
26750;SDS011;14345;48.272;25.926;2022-12-07T00:36:13;21.25;;;14.80;;
26750;SDS011;14345;48.272;25.926;2022-12-07T00:38:40;20.80;;;14.05;;
26750;SDS011;14345;48.272;25.926;2022-12-07T00:41:10;23.40;;;13.88;;
26750;SDS011;14345;48.272;25.926;2022-12-07T00:43:37;21.98;;;14.15;;
26750;SDS011;14345;48.272;25.926;2022-12-07T00:46:03;21.10;;;14.13;;
26750;SDS011;14345;48.272;25.926;2022-12-07T00:48:29;25.23;;;15.88;;
26750;SDS011;14345;48.272;25.926;2022-12-07T00:50:55;25.75;;;16.63;;
26750;SDS011;14345;48.272;25.926;2022-12-07T00:53:21;29.75;;;17.65;;
26750;SDS011;14345;48.272;25.926;2022-12-07T00:55:48;22.33;;;14.30;;
26750;SDS011;14345;48.272;25.926;2022-12-07T00:58:14;21.98;;;14.50;;
26750;SDS011;14345;48.272;25.926;2022-12-07T01:00:40;18.50;;;12.73;;
26750;SDS011;14345;48.272;25.926;2022-12-07T01:03:08;19.25;;;13.13;;
26750;SDS011;14345;48.272;25.926;2022-12-07T01:05:34;19.08;;;13.05;;
26750;SDS011;14345;48.272;25.926;2022-12-07T01:08:00;20.98;;;13.43;;
26750;SDS011;14345;48.272;25.926;2022-12-07T01:10:26;18.33;;;12.18;;
26750;SDS011;14345;48.272;25.926;2022-12-07T01:12:53;18.65;;;12.73;;
26750;SDS011;14345;48.272;25.926;2022-12-07T01:15:19;18.60;;;12.85;;
26750;SDS011;14345;48.272;25.926;2022-12-07T01:17:45;16.75;;;12.38;;
26750;SDS011;14345;48.272;25.926;2022-12-07T01:20:11;13.68;;;9.80;;
26750;SDS011;14345;48.272;25.926;2022-12-07T01:22:38;15.05;;;11.13;;
26750;SDS011;14345;48.272;25.926;2022-12-07T01:25:04;15.65;;;10.98;;
26750;SDS011;14345;48.272;25.926;2022-12-07T01:27:31;15.60;;;10.85;;
26750;SDS011;14345;48.272;25.926;2022-12-07T01:29:57;18.48;;;12.70;;
26750;SDS011;14345;48.272;25.926;2022-12-07T01:32:23;15.20;;;10.75;;
26750;SDS011;14345;48.272;25.926;2022-12-07T01:34:49;19.70;;;12.38;;
26750;SDS011;14345;48.272;25.926;2022-12-07T01:37:15;16.20;;;11.80;;
26750;SDS011;14345;48.272;25.926;2022-12-07T01:39:41;15.70;;;10.65;;
26750;SDS011;14345;48.272;25.926;2022-12-07T01:42:11;17.60;;;12.40;;
26750;SDS011;14345;48.272;25.926;2022-12-07T01:47:21;14.13;;;10.60;;
26750;SDS011;14345;48.272;25.926;2022-12-07T01:49:48;15.55;;;11.00;;
26750;SDS011;14345;48.272;25.926;2022-12-07T01:54:46;15.00;;;10.77;;
26750;SDS011;14345;48.272;25.926;2022-12-07T01:57:13;16.13;;;11.77;;
26750;SDS011;14345;48.272;25.926;2022-12-07T01:59:41;16.38;;;11.15;;
26750;SDS011;14345;48.272;25.926;2022-12-07T02:02:10;14.18;;;10.20;;
26750;SDS011;14345;48.272;25.926;2022-12-07T02:04:37;15.57;;;11.48;;
26750;SDS011;14345;48.272;25.926;2022-12-07T02:07:03;14.50;;;10.82;;
26750;SDS011;14345;48.272;25.926;2022-12-07T02:09:30;17.27;;;11.63;;
26750;SDS011;14345;48.272;25.926;2022-12-07T02:11:56;14.95;;;10.63;;
26750;SDS011;14345;48.272;25.926;2022-12-07T02:14:23;14.75;;;11.27;;
26750;SDS011;14345;48.272;25.926;2022-12-07T02:29:40;15.95;;;11.20;;
26750;SDS011;14345;48.272;25.926;2022-12-07T02:34:49;15.32;;;11.25;;
26750;SDS011;14345;48.272;25.926;2022-12-07T02:37:21;14.90;;;11.07;;
26750;SDS011;14345;48.272;25.926;2022-12-07T02:39:55;18.65;;;12.13;;
26750;SDS011;14345;48.272;25.926;2022-12-07T02:42:26;18.23;;;12.15;;
26750;SDS011;14345;48.272;25.926;2022-12-07T02:44:53;16.98;;;11.45;;
26750;SDS011;14345;48.272;25.926;2022-12-07T02:47:19;16.20;;;11.57;;
26750;SDS011;14345;48.272;25.926;2022-12-07T02:49:47;13.77;;;10.38;;
26750;SDS011;14345;48.272;25.926;2022-12-07T02:52:13;17.67;;;12.82;;
26750;SDS011;14345;48.272;25.926;2022-12-07T02:54:39;20.10;;;13.52;;
26750;SDS011;14345;48.272;25.926;2022-12-07T02:57:09;18.52;;;12.57;;
26750;SDS011;14345;48.272;25.926;2022-12-07T02:59:49;19.38;;;13.25;;
26750;SDS011;14345;48.272;25.926;2022-12-07T03:10:27;15.60;;;11.35;;
26750;SDS011;14345;48.272;25.926;2022-12-07T03:15:43;17.02;;;11.90;;
26750;SDS011;14345;48.272;25.926;2022-12-07T03:18:11;23.58;;;14.15;;
26750;SDS011;14345;48.272;25.926;2022-12-07T03:20:38;19.40;;;12.88;;
26750;SDS011;14345;48.272;25.926;2022-12-07T03:23:06;16.05;;;11.50;;
26750;SDS011;14345;48.272;25.926;2022-12-07T03:25:35;18.02;;;11.80;;
26750;SDS011;14345;48.272;25.926;2022-12-07T03:28:05;16.50;;;11.82;;
26750;SDS011;14345;48.272;25.926;2022-12-07T03:30:37;16.20;;;11.02;;
26750;SDS011;14345;48.272;25.926;2022-12-07T03:33:13;14.27;;;11.23;;
26750;SDS011;14345;48.272;25.926;2022-12-07T03:35:43;22.08;;;14.35;;
26750;SDS011;14345;48.272;25.926;2022-12-07T03:40:41;15.35;;;11.13;;
26750;SDS011;14345;48.272;25.926;2022-12-07T03:43:09;16.05;;;11.55;;
26750;SDS011;14345;48.272;25.926;2022-12-07T03:48:07;21.00;;;15.18;;
26750;SDS011;14345;48.272;25.926;2022-12-07T03:53:26;18.90;;;13.30;;
26750;SDS011;14345;48.272;25.926;2022-12-07T03:55:54;20.27;;;14.75;;
26750;SDS011;14345;48.272;25.926;2022-12-07T03:58:21;21.45;;;14.77;;
26750;SDS011;14345;48.272;25.926;2022-12-07T04:00:48;19.85;;;14.23;;
26750;SDS011;14345;48.272;25.926;2022-12-07T04:03:15;20.30;;;14.10;;
26750;SDS011;14345;48.272;25.926;2022-12-07T04:05:41;18.35;;;13.38;;
26750;SDS011;14345;48.272;25.926;2022-12-07T04:08:08;27.13;;;16.85;;
26750;SDS011;14345;48.272;25.926;2022-12-07T04:10:34;25.85;;;17.00;;
26750;SDS011;14345;48.272;25.926;2022-12-07T04:13:00;24.63;;;16.08;;
26750;SDS011;14345;48.272;25.926;2022-12-07T04:15:26;23.83;;;15.98;;
26750;SDS011;14345;48.272;25.926;2022-12-07T04:17:52;18.67;;;13.18;;
26750;SDS011;14345;48.272;25.926;2022-12-07T04:20:19;22.67;;;15.05;;
26750;SDS011;14345;48.272;25.926;2022-12-07T06:26:41;51.55;;;32.65;;
26750;SDS011;14345;48.272;25.926;2022-12-07T06:29:07;67.45;;;43.53;;
26750;SDS011;14345;48.272;25.926;2022-12-07T06:31:33;88.28;;;58.58;;
26750;SDS011;14345;48.272;25.926;2022-12-07T06:34:01;70.25;;;45.25;;
26750;SDS011;14345;48.272;25.926;2022-12-07T06:36:28;66.00;;;43.53;;
26750;SDS011;14345;48.272;25.926;2022-12-07T06:38:54;62.75;;;40.55;;
26750;SDS011;14345;48.272;25.926;2022-12-07T06:41:20;67.15;;;43.90;;
26750;SDS011;14345;48.272;25.926;2022-12-07T06:43:46;60.97;;;38.70;;
26750;SDS011;14345;48.272;25.926;2022-12-07T06:46:13;54.13;;;35.70;;
26750;SDS011;14345;48.272;25.926;2022-12-07T06:48:39;54.33;;;35.15;;
26750;SDS011;14345;48.272;25.926;2022-12-07T06:51:05;53.28;;;34.42;;
26750;SDS011;14345;48.272;25.926;2022-12-07T06:53:31;45.78;;;30.58;;
26750;SDS011;14345;48.272;25.926;2022-12-07T06:55:57;36.92;;;24.80;;
26750;SDS011;14345;48.272;25.926;2022-12-07T06:58:23;32.55;;;21.73;;
26750;SDS011;14345;48.272;25.926;2022-12-07T07:00:50;29.85;;;18.88;;
26750;SDS011;14345;48.272;25.926;2022-12-07T07:03:16;31.50;;;19.33;;
26750;SDS011;14345;48.272;25.926;2022-12-07T07:05:42;28.00;;;18.15;;
26750;SDS011;14345;48.272;25.926;2022-12-07T07:08:09;29.80;;;18.92;;
26750;SDS011;14345;48.272;25.926;2022-12-07T07:10:35;27.25;;;17.52;;
26750;SDS011;14345;48.272;25.926;2022-12-07T07:13:02;33.10;;;19.95;;
26750;SDS011;14345;48.272;25.926;2022-12-07T07:15:28;30.25;;;18.92;;
26750;SDS011;14345;48.272;25.926;2022-12-07T07:17:54;31.23;;;19.00;;
26750;SDS011;14345;48.272;25.926;2022-12-07T07:20:20;28.60;;;17.52;;
26750;SDS011;14345;48.272;25.926;2022-12-07T07:22:47;24.33;;;16.38;;
26750;SDS011;14345;48.272;25.926;2022-12-07T07:25:13;30.38;;;20.23;;
26750;SDS011;14345;48.272;25.926;2022-12-07T07:27:39;29.25;;;18.52;;
26750;SDS011;14345;48.272;25.926;2022-12-07T07:30:05;26.55;;;17.05;;
26750;SDS011;14345;48.272;25.926;2022-12-07T07:32:32;29.83;;;18.33;;
26750;SDS011;14345;48.272;25.926;2022-12-07T07:34:58;27.05;;;17.38;;
26750;SDS011;14345;48.272;25.926;2022-12-07T07:37:24;29.33;;;18.05;;
26750;SDS011;14345;48.272;25.926;2022-12-07T07:39:50;26.10;;;16.48;;
26750;SDS011;14345;48.272;25.926;2022-12-07T07:42:16;24.92;;;16.35;;
26750;SDS011;14345;48.272;25.926;2022-12-07T07:44:42;21.50;;;14.70;;
26750;SDS011;14345;48.272;25.926;2022-12-07T07:47:08;23.13;;;15.38;;
26750;SDS011;14345;48.272;25.926;2022-12-07T07:49:34;23.17;;;14.52;;
26750;SDS011;14345;48.272;25.926;2022-12-07T07:52:01;19.92;;;13.75;;
26750;SDS011;14345;48.272;25.926;2022-12-07T07:54:27;20.67;;;14.18;;
26750;SDS011;14345;48.272;25.926;2022-12-07T07:56:53;23.20;;;15.65;;
26750;SDS011;14345;48.272;25.926;2022-12-07T07:59:19;22.20;;;14.35;;
26750;SDS011;14345;48.272;25.926;2022-12-07T08:01:45;22.48;;;13.98;;
26750;SDS011;14345;48.272;25.926;2022-12-07T08:04:11;21.58;;;14.05;;
26750;SDS011;14345;48.272;25.926;2022-12-07T08:06:37;21.15;;;14.27;;
26750;SDS011;14345;48.272;25.926;2022-12-07T08:09:03;26.58;;;17.13;;
26750;SDS011;14345;48.272;25.926;2022-12-07T08:11:30;24.10;;;15.18;;
26750;SDS011;14345;48.272;25.926;2022-12-07T08:13:56;21.23;;;14.15;;
26750;SDS011;14345;48.272;25.926;2022-12-07T08:16:22;19.80;;;13.52;;
26750;SDS011;14345;48.272;25.926;2022-12-07T08:18:48;21.77;;;13.45;;
26750;SDS011;14345;48.272;25.926;2022-12-07T08:21:15;23.20;;;15.18;;
26750;SDS011;14345;48.272;25.926;2022-12-07T08:23:41;20.08;;;13.82;;
26750;SDS011;14345;48.272;25.926;2022-12-07T08:26:08;20.88;;;13.43;;
26750;SDS011;14345;48.272;25.926;2022-12-07T08:28:34;19.27;;;13.35;;
26750;SDS011;14345;48.272;25.926;2022-12-07T08:31:04;18.08;;;12.70;;
26750;SDS011;14345;48.272;25.926;2022-12-07T08:33:31;19.85;;;13.55;;
26750;SDS011;14345;48.272;25.926;2022-12-07T08:36:03;27.25;;;16.70;;
26750;SDS011;14345;48.272;25.926;2022-12-07T08:38:30;25.27;;;16.13;;
26750;SDS011;14345;48.272;25.926;2022-12-07T08:40:57;24.67;;;16.75;;
26750;SDS011;14345;48.272;25.926;2022-12-07T08:43:23;21.30;;;15.38;;
26750;SDS011;14345;48.272;25.926;2022-12-07T08:48:35;22.63;;;15.05;;
26750;SDS011;14345;48.272;25.926;2022-12-07T08:51:02;24.20;;;15.57;;
26750;SDS011;14345;48.272;25.926;2022-12-07T08:53:28;30.15;;;18.95;;
26750;SDS011;14345;48.272;25.926;2022-12-07T08:55:54;23.52;;;15.77;;
26750;SDS011;14345;48.272;25.926;2022-12-07T08:58:21;25.00;;;16.33;;
26750;SDS011;14345;48.272;25.926;2022-12-07T12:26:21;41.35;;;24.50;;
26750;SDS011;14345;48.272;25.926;2022-12-07T12:33:58;41.30;;;25.75;;
26750;SDS011;14345;48.272;25.926;2022-12-07T12:47:04;47.25;;;27.58;;
26750;SDS011;14345;48.272;25.926;2022-12-07T12:49:40;46.08;;;27.13;;
26750;SDS011;14345;48.272;25.926;2022-12-07T12:57:30;51.92;;;29.50;;
26750;SDS011;14345;48.272;25.926;2022-12-07T12:59:57;53.55;;;30.95;;
26750;SDS011;14345;48.272;25.926;2022-12-07T13:02:27;51.30;;;29.67;;
26750;SDS011;14345;48.272;25.926;2022-12-07T13:04:55;49.33;;;28.50;;
26750;SDS011;14345;48.272;25.926;2022-12-07T13:10:20;44.15;;;27.70;;
26750;SDS011;14345;48.272;25.926;2022-12-07T13:17:59;48.35;;;28.77;;
26750;SDS011;14345;48.272;25.926;2022-12-07T13:23:06;45.40;;;26.77;;
26750;SDS011;14345;48.272;25.926;2022-12-07T13:25:49;42.78;;;26.65;;
26750;SDS011;14345;48.272;25.926;2022-12-07T13:28:17;50.67;;;28.67;;
26750;SDS011;14345;48.272;25.926;2022-12-07T13:30:54;46.33;;;27.38;;
26750;SDS011;14345;48.272;25.926;2022-12-07T13:33:23;44.22;;;26.27;;
26750;SDS011;14345;48.272;25.926;2022-12-07T13:35:53;46.25;;;28.00;;
26750;SDS011;14345;48.272;25.926;2022-12-07T13:41:01;53.58;;;31.38;;
26750;SDS011;14345;48.272;25.926;2022-12-07T13:43:28;51.45;;;31.33;;
26750;SDS011;14345;48.272;25.926;2022-12-07T13:45:57;51.67;;;30.15;;
26750;SDS011;14345;48.272;25.926;2022-12-07T13:48:32;57.10;;;32.95;;
26750;SDS011;14345;48.272;25.926;2022-12-07T13:51:00;59.85;;;34.05;;
26750;SDS011;14345;48.272;25.926;2022-12-07T13:53:26;63.25;;;38.47;;
26750;SDS011;14345;48.272;25.926;2022-12-07T13:55:55;62.22;;;36.38;;
26750;SDS011;14345;48.272;25.926;2022-12-07T13:58:21;57.03;;;33.28;;
26750;SDS011;14345;48.272;25.926;2022-12-07T14:00:48;56.63;;;33.55;;
26750;SDS011;14345;48.272;25.926;2022-12-07T14:05:40;46.15;;;28.38;;
26750;SDS011;14345;48.272;25.926;2022-12-07T14:10:39;45.97;;;26.88;;
26750;SDS011;14345;48.272;25.926;2022-12-07T14:15:51;46.58;;;27.17;;
26750;SDS011;14345;48.272;25.926;2022-12-07T14:18:24;41.90;;;25.27;;
26750;SDS011;14345;48.272;25.926;2022-12-07T14:20:52;41.80;;;25.70;;
26750;SDS011;14345;48.272;25.926;2022-12-07T14:23:27;44.15;;;27.20;;
26750;SDS011;14345;48.272;25.926;2022-12-07T14:25:54;47.92;;;28.77;;
26750;SDS011;14345;48.272;25.926;2022-12-07T14:28:27;48.00;;;28.90;;
26750;SDS011;14345;48.272;25.926;2022-12-07T14:30:54;42.50;;;25.35;;
26750;SDS011;14345;48.272;25.926;2022-12-07T14:33:20;47.08;;;27.10;;
26750;SDS011;14345;48.272;25.926;2022-12-07T14:35:47;48.63;;;28.55;;
26750;SDS011;14345;48.272;25.926;2022-12-07T14:38:15;51.83;;;30.17;;
26750;SDS011;14345;48.272;25.926;2022-12-07T14:40:43;46.05;;;27.17;;
26750;SDS011;14345;48.272;25.926;2022-12-07T14:43:12;43.13;;;26.10;;
26750;SDS011;14345;48.272;25.926;2022-12-07T14:45:40;44.20;;;26.30;;
26750;SDS011;14345;48.272;25.926;2022-12-07T14:48:10;36.38;;;23.23;;
26750;SDS011;14345;48.272;25.926;2022-12-07T14:50:38;34.53;;;21.30;;
26750;SDS011;14345;48.272;25.926;2022-12-07T14:53:09;37.47;;;22.55;;
26750;SDS011;14345;48.272;25.926;2022-12-07T14:55:36;37.42;;;22.75;;
26750;SDS011;14345;48.272;25.926;2022-12-07T14:58:02;37.88;;;23.58;;
26750;SDS011;14345;48.272;25.926;2022-12-07T18:23:13;45.20;;;28.38;;
26750;SDS011;14345;48.272;25.926;2022-12-07T18:25:39;43.38;;;27.77;;
26750;SDS011;14345;48.272;25.926;2022-12-07T18:28:07;57.92;;;35.78;;
26750;SDS011;14345;48.272;25.926;2022-12-07T18:30:33;57.60;;;35.08;;
26750;SDS011;14345;48.272;25.926;2022-12-07T18:32:59;59.28;;;38.53;;
26750;SDS011;14345;48.272;25.926;2022-12-07T18:35:25;48.00;;;31.52;;
26750;SDS011;14345;48.272;25.926;2022-12-07T18:37:51;45.05;;;29.88;;
26750;SDS011;14345;48.272;25.926;2022-12-07T18:40:17;44.17;;;28.30;;
26750;SDS011;14345;48.272;25.926;2022-12-07T18:42:43;47.92;;;31.63;;
26750;SDS011;14345;48.272;25.926;2022-12-07T18:45:09;47.47;;;29.33;;
26750;SDS011;14345;48.272;25.926;2022-12-07T18:47:35;41.25;;;27.13;;
26750;SDS011;14345;48.272;25.926;2022-12-07T18:50:01;43.30;;;27.90;;
26750;SDS011;14345;48.272;25.926;2022-12-07T18:52:28;47.85;;;27.60;;
26750;SDS011;14345;48.272;25.926;2022-12-07T18:54:54;48.97;;;28.92;;
26750;SDS011;14345;48.272;25.926;2022-12-07T18:57:20;52.38;;;31.05;;
26750;SDS011;14345;48.272;25.926;2022-12-07T18:59:46;58.63;;;34.88;;
26750;SDS011;14345;48.272;25.926;2022-12-07T19:02:13;52.80;;;31.67;;
26750;SDS011;14345;48.272;25.926;2022-12-07T19:04:39;47.53;;;28.52;;
26750;SDS011;14345;48.272;25.926;2022-12-07T19:07:06;51.78;;;32.08;;
26750;SDS011;14345;48.272;25.926;2022-12-07T19:09:31;54.88;;;33.17;;
26750;SDS011;14345;48.272;25.926;2022-12-07T19:11:57;54.10;;;31.95;;
26750;SDS011;14345;48.272;25.926;2022-12-07T19:14:28;50.67;;;32.10;;
26750;SDS011;14345;48.272;25.926;2022-12-07T19:16:56;45.38;;;28.95;;
26750;SDS011;14345;48.272;25.926;2022-12-07T19:19:23;43.85;;;28.42;;
26750;SDS011;14345;48.272;25.926;2022-12-07T19:21:49;46.42;;;27.98;;
26750;SDS011;14345;48.272;25.926;2022-12-07T19:24:16;42.45;;;28.27;;
26750;SDS011;14345;48.272;25.926;2022-12-07T19:26:42;47.25;;;29.80;;
26750;SDS011;14345;48.272;25.926;2022-12-07T19:29:08;48.78;;;30.02;;
26750;SDS011;14345;48.272;25.926;2022-12-07T19:31:34;44.83;;;28.73;;
26750;SDS011;14345;48.272;25.926;2022-12-07T19:34:01;53.78;;;33.10;;
26750;SDS011;14345;48.272;25.926;2022-12-07T19:36:27;59.47;;;35.40;;
26750;SDS011;14345;48.272;25.926;2022-12-07T19:38:53;53.60;;;32.22;;
26750;SDS011;14345;48.272;25.926;2022-12-07T19:41:19;54.85;;;31.67;;
26750;SDS011;14345;48.272;25.926;2022-12-07T19:44:20;53.75;;;33.67;;
26750;SDS011;14345;48.272;25.926;2022-12-07T19:46:49;49.25;;;30.85;;
26750;SDS011;14345;48.272;25.926;2022-12-07T19:49:16;56.83;;;33.30;;
26750;SDS011;14345;48.272;25.926;2022-12-07T19:51:42;49.90;;;31.10;;
26750;SDS011;14345;48.272;25.926;2022-12-07T19:54:09;48.03;;;31.02;;
26750;SDS011;14345;48.272;25.926;2022-12-07T19:56:36;50.30;;;32.10;;
26750;SDS011;14345;48.272;25.926;2022-12-07T19:59:02;52.20;;;32.38;;
26750;SDS011;14345;48.272;25.926;2022-12-07T20:01:28;50.58;;;31.80;;
26750;SDS011;14345;48.272;25.926;2022-12-07T20:03:55;53.85;;;33.50;;
26750;SDS011;14345;48.272;25.926;2022-12-07T20:06:21;56.25;;;34.88;;
26750;SDS011;14345;48.272;25.926;2022-12-07T20:08:48;52.22;;;32.85;;
26750;SDS011;14345;48.272;25.926;2022-12-07T20:11:14;60.63;;;35.78;;
26750;SDS011;14345;48.272;25.926;2022-12-07T20:14:01;54.60;;;34.33;;
26750;SDS011;14345;48.272;25.926;2022-12-07T20:16:28;55.63;;;34.00;;
26750;SDS011;14345;48.272;25.926;2022-12-07T20:18:54;58.15;;;35.38;;
26750;SDS011;14345;48.272;25.926;2022-12-07T20:21:20;56.85;;;35.70;;
26750;SDS011;14345;48.272;25.926;2022-12-07T20:23:46;54.25;;;33.70;;
26750;SDS011;14345;48.272;25.926;2022-12-07T20:26:12;55.00;;;34.50;;
26750;SDS011;14345;48.272;25.926;2022-12-07T20:28:39;55.35;;;35.40;;
26750;SDS011;14345;48.272;25.926;2022-12-07T20:31:10;58.15;;;35.70;;
26750;SDS011;14345;48.272;25.926;2022-12-07T20:33:36;54.45;;;33.83;;
26750;SDS011;14345;48.272;25.926;2022-12-07T20:36:02;59.05;;;37.88;;
26750;SDS011;14345;48.272;25.926;2022-12-07T20:38:29;57.45;;;35.30;;
26750;SDS011;14345;48.272;25.926;2022-12-07T20:40:58;55.17;;;34.25;;
26750;SDS011;14345;48.272;25.926;2022-12-07T20:43:25;54.72;;;33.05;;
26750;SDS011;14345;48.272;25.926;2022-12-07T20:45:51;46.22;;;29.80;;
26750;SDS011;14345;48.272;25.926;2022-12-07T20:48:17;53.40;;;32.30;;
26750;SDS011;14345;48.272;25.926;2022-12-07T20:50:43;51.15;;;31.25;;
26750;SDS011;14345;48.272;25.926;2022-12-07T20:53:09;48.30;;;31.02;;
26750;SDS011;14345;48.272;25.926;2022-12-07T20:55:35;53.00;;;33.42;;
26750;SDS011;14345;48.272;25.926;2022-12-07T20:58:01;58.75;;;37.88;;
26750;SDS011;14345;48.272;25.926;2022-12-07T21:00:28;59.25;;;39.25;;
26750;SDS011;14345;48.272;25.926;2022-12-07T21:02:54;69.60;;;44.90;;
26750;SDS011;14345;48.272;25.926;2022-12-07T21:05:21;66.32;;;41.38;;
26750;SDS011;14345;48.272;25.926;2022-12-07T21:07:47;63.15;;;40.35;;
26750;SDS011;14345;48.272;25.926;2022-12-07T21:10:13;64.47;;;39.05;;
26750;SDS011;14345;48.272;25.926;2022-12-07T21:12:39;65.97;;;39.38;;
26750;SDS011;14345;48.272;25.926;2022-12-07T21:15:05;61.95;;;38.13;;
26750;SDS011;14345;48.272;25.926;2022-12-07T21:17:32;68.22;;;42.22;;
26750;SDS011;14345;48.272;25.926;2022-12-07T21:19:58;85.43;;;51.45;;
26750;SDS011;14345;48.272;25.926;2022-12-07T21:22:24;98.28;;;56.00;;
26750;SDS011;14345;48.272;25.926;2022-12-07T21:24:50;93.22;;;53.70;;
26750;SDS011;14345;48.272;25.926;2022-12-07T21:27:16;88.15;;;53.53;;
26750;SDS011;14345;48.272;25.926;2022-12-07T21:29:42;96.90;;;57.72;;
26750;SDS011;14345;48.272;25.926;2022-12-07T21:32:08;100.63;;;58.53;;
26750;SDS011;14345;48.272;25.926;2022-12-07T21:34:35;91.50;;;56.22;;
26750;SDS011;14345;48.272;25.926;2022-12-07T21:37:01;101.10;;;60.53;;
26750;SDS011;14345;48.272;25.926;2022-12-07T21:39:27;105.22;;;60.63;;
26750;SDS011;14345;48.272;25.926;2022-12-07T21:41:53;78.18;;;48.72;;
26750;SDS011;14345;48.272;25.926;2022-12-07T21:44:19;71.95;;;44.28;;
26750;SDS011;14345;48.272;25.926;2022-12-07T21:46:45;62.15;;;37.97;;
26750;SDS011;14345;48.272;25.926;2022-12-07T21:49:12;52.75;;;33.58;;
26750;SDS011;14345;48.272;25.926;2022-12-07T21:51:39;57.40;;;34.58;;
26750;SDS011;14345;48.272;25.926;2022-12-07T21:54:05;51.65;;;31.75;;
26750;SDS011;14345;48.272;25.926;2022-12-07T21:56:33;43.00;;;27.27;;
26750;SDS011;14345;48.272;25.926;2022-12-07T21:59:03;44.63;;;27.58;;
26750;SDS011;14345;48.272;25.926;2022-12-07T22:01:30;48.72;;;29.00;;
26750;SDS011;14345;48.272;25.926;2022-12-07T22:03:59;46.17;;;28.65;;
26750;SDS011;14345;48.272;25.926;2022-12-07T22:06:25;45.28;;;27.58;;
26750;SDS011;14345;48.272;25.926;2022-12-07T23:55:08;46.80;;;29.55;;
26750;SDS011;14345;48.272;25.926;2022-12-07T23:57:34;46.60;;;29.17;;
